Time;durP1;ratioP1;P1;durP2;ratioP2;P2;SDS_P1;SDS_P2;PMS_P1;PMS_P2;Temp;Humidity;BMP_temperature;BMP_pressure;BME280_temperature;BME280_humidity;BME280_pressure;Samples;Min_cycle;Max_cycle;Signal;HPM_P1;HPM_P2
2024/01/17 00:00:50;;;;;;;9.60;5.68;;;;;;;;;;5050065;28;20482;-57
2024/01/17 00:03:16;;;;;;;10.10;6.00;;;;;;;;;;5068145;28;20029;-58
2024/01/17 00:05:42;;;;;;;9.82;5.80;;;;;;;;;;5067947;28;20162;-59
2024/01/17 00:08:09;;;;;;;9.75;5.72;;;;;;;;;;5068049;28;20021;-55
2024/01/17 00:10:35;;;;;;;10.10;6.10;;;;;;;;;;5051041;28;20028;-59
2024/01/17 00:13:02;;;;;;;10.20;6.00;;;;;;;;;;5067941;28;20105;-61
2024/01/17 00:15:28;;;;;;;9.70;5.78;;;;;;;;;;5069861;28;20032;-59
2024/01/17 00:17:54;;;;;;;10.10;5.93;;;;;;;;;;5072408;28;20117;-58
2024/01/17 00:20:20;;;;;;;10.38;6.10;;;;;;;;;;5072032;28;20108;-58
2024/01/17 00:22:46;;;;;;;9.85;5.82;;;;;;;;;;5070975;28;20103;-60
2024/01/17 00:25:12;;;;;;;10.90;6.15;;;;;;;;;;5053614;28;20078;-56
2024/01/17 00:27:38;;;;;;;9.48;5.57;;;;;;;;;;5070657;28;20044;-59
2024/01/17 00:30:06;;;;;;;10.15;5.95;;;;;;;;;;5070689;28;20032;-60
2024/01/17 00:32:32;;;;;;;11.85;7.00;;;;;;;;;;5069933;28;20094;-59
2024/01/17 00:34:58;;;;;;;11.93;7.00;;;;;;;;;;5070692;28;20082;-61
2024/01/17 00:37:25;;;;;;;11.32;6.68;;;;;;;;;;5070725;28;20028;-62
2024/01/17 00:39:51;;;;;;;10.30;6.03;;;;;;;;;;5070130;28;20550;-60
2024/01/17 00:42:17;;;;;;;10.25;6.05;;;;;;;;;;5052394;28;20436;-61
2024/01/17 00:44:43;;;;;;;28.83;8.43;;;;;;;;;;5071210;28;20050;-60
2024/01/17 00:47:10;;;;;;;10.10;6.03;;;;;;;;;;5070892;28;20116;-60
2024/01/17 00:49:39;;;;;;;10.00;5.90;;;;;;;;;;5071164;28;20021;-58
2024/01/17 00:52:05;;;;;;;11.25;7.05;;;;;;;;;;5070347;28;20539;-60
2024/01/17 00:54:34;;;;;;;11.77;7.18;;;;;;;;;;5063127;28;20032;-59
2024/01/17 00:57:00;;;;;;;11.38;6.80;;;;;;;;;;5072971;28;20028;-62
2024/01/17 00:59:26;;;;;;;11.13;6.90;;;;;;;;;;5076200;28;20032;-60
2024/01/17 01:01:52;;;;;;;9.93;5.82;;;;;;;;;;5065092;28;20280;-60
2024/01/17 01:04:18;;;;;;;9.95;5.85;;;;;;;;;;5084482;28;20080;-59
2024/01/17 01:06:44;;;;;;;11.05;7.07;;;;;;;;;;5085211;28;20139;-60
2024/01/17 01:09:10;;;;;;;10.25;6.05;;;;;;;;;;5084253;28;20024;-61
2024/01/17 01:11:36;;;;;;;10.00;6.00;;;;;;;;;;5083654;28;20496;-61
2024/01/17 01:14:03;;;;;;;9.68;5.70;;;;;;;;;;5082284;28;20048;-60
2024/01/17 01:16:29;;;;;;;9.25;5.45;;;;;;;;;;5083398;28;20029;-61
2024/01/17 01:18:55;;;;;;;9.50;5.65;;;;;;;;;;5080068;28;20094;-59
2024/01/17 01:21:21;;;;;;;9.68;5.65;;;;;;;;;;5070469;28;20100;-59
2024/01/17 01:23:47;;;;;;;9.80;5.80;;;;;;;;;;5053301;28;20645;-60
2024/01/17 01:26:14;;;;;;;9.75;5.72;;;;;;;;;;5070908;28;20013;-59
2024/01/17 01:28:40;;;;;;;9.63;5.70;;;;;;;;;;5071237;28;20024;-60
2024/01/17 01:31:06;;;;;;;9.77;5.80;;;;;;;;;;5070573;28;20032;-60
2024/01/17 01:33:32;;;;;;;9.60;5.70;;;;;;;;;;5070772;28;20031;-60
2024/01/17 01:35:58;;;;;;;9.68;5.75;;;;;;;;;;5070607;28;20107;-61
2024/01/17 01:38:24;;;;;;;9.40;5.55;;;;;;;;;;5070646;28;20158;-58
2024/01/17 01:40:50;;;;;;;9.13;5.40;;;;;;;;;;5070122;28;20677;-60
2024/01/17 01:43:18;;;;;;;9.32;5.50;;;;;;;;;;5063129;28;20037;-57
2024/01/17 01:45:44;;;;;;;9.70;5.70;;;;;;;;;;5050201;28;20033;-61
2024/01/17 01:48:10;;;;;;;10.63;7.20;;;;;;;;;;5050352;28;20677;-60
2024/01/17 01:50:36;;;;;;;9.55;5.57;;;;;;;;;;5049857;28;20504;-56
2024/01/17 01:53:02;;;;;;;9.80;5.80;;;;;;;;;;5049515;28;20486;-61
2024/01/17 01:55:28;;;;;;;10.45;6.10;;;;;;;;;;5050069;28;20048;-59
2024/01/17 01:57:54;;;;;;;9.98;5.90;;;;;;;;;;5049941;28;20072;-59
2024/01/17 02:00:20;;;;;;;9.65;5.68;;;;;;;;;;5049844;28;20025;-61
2024/01/17 02:02:46;;;;;;;9.55;5.60;;;;;;;;;;5049062;28;20025;-60
2024/01/17 02:05:12;;;;;;;9.90;5.80;;;;;;;;;;5049869;28;20025;-58
2024/01/17 02:07:38;;;;;;;9.35;5.50;;;;;;;;;;5049763;28;20028;-59
2024/01/17 02:10:05;;;;;;;9.43;5.55;;;;;;;;;;5031723;28;20020;-61
2024/01/17 02:12:31;;;;;;;9.65;5.75;;;;;;;;;;5048865;28;20053;-60
2024/01/17 02:14:57;;;;;;;9.45;5.55;;;;;;;;;;5049672;28;20060;-60
2024/01/17 02:17:23;;;;;;;9.60;5.63;;;;;;;;;;5049700;28;20066;-59
2024/01/17 02:19:49;;;;;;;9.38;5.57;;;;;;;;;;5049470;28;20032;-56
2024/01/17 02:22:15;;;;;;;9.60;5.60;;;;;;;;;;5049068;28;20183;-60
2024/01/17 02:24:41;;;;;;;9.73;5.72;;;;;;;;;;5049391;28;20108;-57
2024/01/17 02:27:07;;;;;;;9.57;5.65;;;;;;;;;;5049369;28;20029;-57
2024/01/17 02:29:33;;;;;;;9.10;5.55;;;;;;;;;;5049445;28;20148;-61
2024/01/17 02:31:59;;;;;;;9.00;5.35;;;;;;;;;;5030694;28;20065;-60
2024/01/17 02:34:25;;;;;;;9.30;5.50;;;;;;;;;;5049261;28;20067;-60
2024/01/17 02:36:51;;;;;;;9.00;5.30;;;;;;;;;;5049170;28;20029;-60
2024/01/17 02:39:17;;;;;;;9.38;5.90;;;;;;;;;;5048666;28;20028;-58
2024/01/17 02:41:44;;;;;;;8.85;5.25;;;;;;;;;;5048609;28;20039;-59
2024/01/17 02:44:10;;;;;;;8.80;5.20;;;;;;;;;;5031071;28;20017;-60
2024/01/17 02:46:36;;;;;;;9.02;5.32;;;;;;;;;;5049585;28;20082;-59
2024/01/17 02:49:03;;;;;;;9.23;5.47;;;;;;;;;;5049351;28;20518;-58
2024/01/17 02:51:29;;;;;;;8.80;5.20;;;;;;;;;;5031477;28;20071;-56
2024/01/17 02:53:55;;;;;;;8.82;5.20;;;;;;;;;;5049481;28;20025;-58
2024/01/17 02:56:21;;;;;;;9.20;5.47;;;;;;;;;;5049286;28;20076;-57
2024/01/17 02:58:47;;;;;;;8.93;5.25;;;;;;;;;;5031674;28;20021;-60
2024/01/17 03:01:14;;;;;;;9.23;5.40;;;;;;;;;;5030637;28;20025;-59
2024/01/17 03:03:40;;;;;;;9.20;5.43;;;;;;;;;;5049043;28;20070;-58
2024/01/17 03:06:06;;;;;;;9.73;5.70;;;;;;;;;;5048652;28;20021;-59
2024/01/17 03:08:32;;;;;;;9.43;5.60;;;;;;;;;;5049010;28;20036;-59
2024/01/17 03:10:58;;;;;;;8.93;5.25;;;;;;;;;;5048867;28;20025;-58
2024/01/17 03:13:24;;;;;;;9.23;5.43;;;;;;;;;;5048648;28;20044;-59
2024/01/17 03:15:50;;;;;;;9.00;5.32;;;;;;;;;;5048688;28;20160;-59
2024/01/17 03:18:17;;;;;;;9.30;5.50;;;;;;;;;;5048770;28;20060;-61
2024/01/17 03:20:43;;;;;;;9.20;5.43;;;;;;;;;;5048428;28;20017;-60
2024/01/17 03:23:09;;;;;;;8.90;5.28;;;;;;;;;;5048185;28;20029;-61
2024/01/17 03:25:35;;;;;;;9.18;5.40;;;;;;;;;;5048599;28;20031;-59
2024/01/17 03:28:01;;;;;;;9.07;5.38;;;;;;;;;;5048625;28;20036;-59
2024/01/17 03:30:27;;;;;;;9.18;5.40;;;;;;;;;;5048752;28;20102;-60
2024/01/17 03:32:53;;;;;;;9.60;5.65;;;;;;;;;;5047753;28;20028;-60
2024/01/17 03:35:19;;;;;;;9.30;5.50;;;;;;;;;;5048639;28;20128;-59
2024/01/17 03:37:45;;;;;;;9.60;5.75;;;;;;;;;;5048456;28;20079;-61
2024/01/17 03:40:11;;;;;;;9.30;5.50;;;;;;;;;;5048282;28;20040;-61
2024/01/17 03:42:37;;;;;;;10.00;6.22;;;;;;;;;;5030206;28;20422;-59
2024/01/17 03:45:03;;;;;;;10.10;5.90;;;;;;;;;;5048481;28;20551;-61
2024/01/17 03:47:29;;;;;;;9.40;5.57;;;;;;;;;;5048062;28;20034;-58
2024/01/17 03:49:55;;;;;;;9.90;6.35;;;;;;;;;;5050705;28;20025;-60
2024/01/17 03:52:21;;;;;;;9.50;5.60;;;;;;;;;;5033720;28;20036;-61
2024/01/17 03:54:47;;;;;;;9.25;5.50;;;;;;;;;;5052351;28;20021;-59
2024/01/17 03:57:13;;;;;;;9.05;5.40;;;;;;;;;;5052221;28;20036;-61
2024/01/17 03:59:43;;;;;;;9.27;5.47;;;;;;;;;;5052009;28;20137;-57
2024/01/17 04:02:09;;;;;;;10.00;5.90;;;;;;;;;;5051580;28;20021;-59
2024/01/17 04:04:35;;;;;;;10.02;5.88;;;;;;;;;;5034367;28;20483;-58
2024/01/17 04:07:01;;;;;;;9.95;5.90;;;;;;;;;;5052057;28;20040;-60
2024/01/17 04:09:27;;;;;;;9.88;5.80;;;;;;;;;;5052147;28;20079;-61
2024/01/17 04:11:53;;;;;;;9.80;5.78;;;;;;;;;;5033630;28;20032;-59
2024/01/17 04:14:19;;;;;;;9.95;5.90;;;;;;;;;;5052235;28;20021;-59
2024/01/17 04:16:45;;;;;;;9.77;5.72;;;;;;;;;;5052062;28;20029;-58
2024/01/17 04:19:11;;;;;;;9.73;5.70;;;;;;;;;;5034335;28;20128;-60
2024/01/17 04:21:37;;;;;;;10.60;6.45;;;;;;;;;;5033604;28;20112;-58
2024/01/17 04:24:03;;;;;;;9.70;5.80;;;;;;;;;;5051618;28;20049;-59
2024/01/17 04:26:29;;;;;;;10.85;6.70;;;;;;;;;;5051829;28;20398;-59
2024/01/17 04:28:55;;;;;;;9.50;5.60;;;;;;;;;;5051090;28;20024;-59
2024/01/17 04:31:28;;;;;;;9.90;5.82;;;;;;;;;;5051256;28;20040;-58
2024/01/17 04:33:54;;;;;;;9.85;5.82;;;;;;;;;;5033782;28;20025;-59
2024/01/17 04:36:21;;;;;;;9.50;5.60;;;;;;;;;;5051979;28;20029;-58
2024/01/17 04:38:47;;;;;;;9.60;5.68;;;;;;;;;;5051827;28;20025;-57
2024/01/17 04:41:14;;;;;;;9.50;5.60;;;;;;;;;;5051004;28;20028;-58
2024/01/17 04:43:47;;;;;;;9.32;5.50;;;;;;;;;;5051634;28;20032;-59
2024/01/17 04:46:14;;;;;;;10.30;6.07;;;;;;;;;;5051287;28;20163;-60
2024/01/17 04:48:40;;;;;;;10.15;6.00;;;;;;;;;;5051099;28;20028;-58
2024/01/17 04:51:07;;;;;;;10.40;6.10;;;;;;;;;;5050539;28;20029;-59
2024/01/17 04:53:33;;;;;;;10.13;5.93;;;;;;;;;;5051203;28;20054;-61
2024/01/17 04:55:59;;;;;;;10.50;6.18;;;;;;;;;;5051028;28;20481;-58
2024/01/17 04:58:26;;;;;;;9.77;5.70;;;;;;;;;;5032960;28;20052;-59
2024/01/17 05:00:52;;;;;;;10.10;5.90;;;;;;;;;;5050508;28;20032;-60
2024/01/17 05:03:18;;;;;;;10.05;5.90;;;;;;;;;;5032862;28;20395;-58
2024/01/17 05:05:44;;;;;;;10.60;6.22;;;;;;;;;;5050877;28;20021;-61
2024/01/17 05:08:10;;;;;;;10.55;6.20;;;;;;;;;;5032713;28;20097;-60
2024/01/17 05:10:36;;;;;;;10.35;6.07;;;;;;;;;;5050415;28;20027;-59
2024/01/17 05:13:02;;;;;;;10.30;6.05;;;;;;;;;;5050182;28;20053;-61
2024/01/17 05:15:28;;;;;;;10.27;6.00;;;;;;;;;;5050616;28;20033;-57
2024/01/17 05:17:54;;;;;;;10.55;6.20;;;;;;;;;;5050651;28;20402;-60
2024/01/17 05:20:21;;;;;;;10.40;6.18;;;;;;;;;;5057529;28;20112;-59
2024/01/17 05:22:47;;;;;;;11.23;6.60;;;;;;;;;;5067993;28;20114;-62
2024/01/17 05:25:13;;;;;;;10.88;6.40;;;;;;;;;;5070596;28;20509;-61
2024/01/17 05:27:39;;;;;;;10.95;6.40;;;;;;;;;;5070432;28;20084;-61
2024/01/17 05:30:09;;;;;;;10.38;6.05;;;;;;;;;;5070590;28;20384;-60
2024/01/17 05:32:37;;;;;;;10.30;6.10;;;;;;;;;;5069618;28;20438;-60
2024/01/17 05:35:04;;;;;;;10.20;5.95;;;;;;;;;;5070205;28;20397;-57
2024/01/17 05:37:30;;;;;;;10.55;6.15;;;;;;;;;;5069874;28;20479;-58
2024/01/17 05:39:56;;;;;;;10.68;6.20;;;;;;;;;;5069763;28;20047;-60
2024/01/17 05:42:22;;;;;;;10.73;6.25;;;;;;;;;;5069248;28;20130;-57
2024/01/17 05:44:48;;;;;;;11.25;6.55;;;;;;;;;;5069400;28;20040;-57
2024/01/17 05:47:14;;;;;;;11.90;6.95;;;;;;;;;;5051564;28;20097;-61
2024/01/17 05:49:40;;;;;;;11.80;6.82;;;;;;;;;;5069595;28;20025;-58
2024/01/17 05:52:06;;;;;;;11.60;6.78;;;;;;;;;;5050858;28;20046;-60
2024/01/17 05:54:32;;;;;;;11.65;6.80;;;;;;;;;;5069640;28;20032;-60
2024/01/17 05:56:58;;;;;;;11.80;6.82;;;;;;;;;;5069398;28;20134;-60
2024/01/17 05:59:24;;;;;;;11.25;6.60;;;;;;;;;;5069130;28;20017;-61
2024/01/17 06:01:50;;;;;;;11.52;6.70;;;;;;;;;;5068411;28;20013;-60
2024/01/17 06:04:19;;;;;;;11.20;6.57;;;;;;;;;;5069410;28;20082;-60
2024/01/17 06:06:45;;;;;;;11.60;6.78;;;;;;;;;;5067428;28;20017;-61
2024/01/17 06:09:12;;;;;;;11.25;6.60;;;;;;;;;;5062608;28;20119;-61
2024/01/17 06:11:38;;;;;;;13.85;7.53;;;;;;;;;;5068328;28;20104;-60
2024/01/17 06:14:04;;;;;;;11.38;6.65;;;;;;;;;;5050159;28;20115;-60
2024/01/17 06:16:30;;;;;;;10.95;6.40;;;;;;;;;;5068638;28;20033;-59
2024/01/17 06:18:59;;;;;;;11.13;6.50;;;;;;;;;;5068821;28;20048;-61
2024/01/17 06:21:25;;;;;;;11.20;6.53;;;;;;;;;;5068132;28;20461;-61
2024/01/17 06:23:51;;;;;;;11.23;6.55;;;;;;;;;;5051040;28;20104;-61
2024/01/17 06:26:17;;;;;;;11.80;6.85;;;;;;;;;;5069558;28;20159;-59
2024/01/17 06:28:44;;;;;;;11.32;6.63;;;;;;;;;;5068744;28;20028;-59
2024/01/17 06:31:10;;;;;;;11.70;7.70;;;;;;;;;;5068521;28;20122;-60
2024/01/17 06:33:36;;;;;;;11.07;6.50;;;;;;;;;;5051345;28;20028;-62
2024/01/17 06:36:02;;;;;;;11.25;6.55;;;;;;;;;;5069056;28;20032;-62
2024/01/17 06:38:28;;;;;;;11.43;6.70;;;;;;;;;;5068964;28;20032;-59
2024/01/17 06:40:54;;;;;;;11.10;6.50;;;;;;;;;;5068711;28;20044;-60
2024/01/17 06:43:20;;;;;;;11.00;6.40;;;;;;;;;;5068194;28;20068;-58
2024/01/17 06:45:46;;;;;;;10.98;6.40;;;;;;;;;;5068173;28;20047;-62
2024/01/17 06:48:12;;;;;;;10.75;6.28;;;;;;;;;;5068785;28;20086;-62
2024/01/17 06:50:39;;;;;;;10.45;6.10;;;;;;;;;;5067673;28;20039;-62
2024/01/17 06:53:04;;;;;;;10.85;6.40;;;;;;;;;;5060672;28;20642;-62
2024/01/17 06:55:30;;;;;;;10.90;6.38;;;;;;;;;;5065080;28;20032;-62
2024/01/17 06:57:56;;;;;;;10.60;6.20;;;;;;;;;;5031114;28;20102;-59
2024/01/17 07:00:24;;;;;;;10.60;6.30;;;;;;;;;;5048863;28;20060;-61
2024/01/17 07:02:50;;;;;;;10.43;6.13;;;;;;;;;;5048113;28;20025;-58
2024/01/17 07:05:17;;;;;;;10.55;6.20;;;;;;;;;;5048422;28;20067;-61
2024/01/17 07:07:43;;;;;;;10.70;6.30;;;;;;;;;;5048618;28;20033;-61
2024/01/17 07:10:09;;;;;;;10.82;6.40;;;;;;;;;;5048689;28;20080;-59
2024/01/17 07:12:35;;;;;;;10.93;6.40;;;;;;;;;;5047640;28;20025;-62
2024/01/17 07:15:01;;;;;;;10.70;6.30;;;;;;;;;;5030561;28;20021;-61
2024/01/17 07:17:27;;;;;;;11.50;6.70;;;;;;;;;;5048143;28;20387;-61
2024/01/17 07:19:53;;;;;;;12.20;7.10;;;;;;;;;;5048306;28;20147;-61
2024/01/17 07:22:19;;;;;;;11.52;6.72;;;;;;;;;;5047844;28;20378;-58
2024/01/17 07:24:45;;;;;;;11.45;6.70;;;;;;;;;;5063898;28;20071;-60
2024/01/17 07:27:11;;;;;;;11.80;6.90;;;;;;;;;;5041045;28;20077;-58
2024/01/17 07:29:37;;;;;;;11.45;6.70;;;;;;;;;;5073505;28;20454;-61
2024/01/17 07:32:03;;;;;;;12.40;7.20;;;;;;;;;;5071023;28;20100;-58
2024/01/17 07:34:29;;;;;;;11.30;6.57;;;;;;;;;;5054960;28;20086;-59
2024/01/17 07:36:55;;;;;;;10.98;6.43;;;;;;;;;;5054431;28;20029;-58
2024/01/17 07:39:22;;;;;;;10.40;6.10;;;;;;;;;;5054798;28;20032;-59
2024/01/17 07:41:48;;;;;;;10.55;6.15;;;;;;;;;;5067350;28;20095;-61
2024/01/17 07:44:14;;;;;;;10.60;6.30;;;;;;;;;;5074875;28;20079;-59
2024/01/17 07:46:41;;;;;;;10.23;6.03;;;;;;;;;;5075102;28;20025;-61
2024/01/17 07:49:07;;;;;;;10.75;6.32;;;;;;;;;;5075280;28;20020;-58
2024/01/17 07:51:33;;;;;;;10.80;6.38;;;;;;;;;;5074486;28;20513;-59
2024/01/17 07:53:59;;;;;;;10.60;6.20;;;;;;;;;;5074826;28;20509;-59
2024/01/17 07:56:25;;;;;;;10.00;5.90;;;;;;;;;;5074756;28;20080;-59
2024/01/17 07:58:51;;;;;;;10.45;6.13;;;;;;;;;;5044041;28;20024;-57
2024/01/17 08:01:17;;;;;;;10.60;6.30;;;;;;;;;;5036212;28;20025;-59
2024/01/17 08:03:43;;;;;;;9.90;5.85;;;;;;;;;;5036717;28;20479;-61
2024/01/17 08:06:09;;;;;;;10.40;6.10;;;;;;;;;;5055106;28;20098;-59
2024/01/17 08:08:36;;;;;;;10.40;6.10;;;;;;;;;;5055613;28;20075;-59
2024/01/17 08:11:02;;;;;;;10.05;5.90;;;;;;;;;;5054465;28;20036;-58
2024/01/17 08:13:28;;;;;;;10.57;6.20;;;;;;;;;;5055422;28;20064;-60
2024/01/17 08:15:54;;;;;;;9.90;5.88;;;;;;;;;;5037321;28;20029;-59
2024/01/17 08:18:20;;;;;;;10.20;6.00;;;;;;;;;;5055040;28;20021;-60
2024/01/17 08:20:46;;;;;;;10.95;6.72;;;;;;;;;;5054486;28;20047;-59
2024/01/17 08:23:12;;;;;;;9.88;5.80;;;;;;;;;;5054072;28;20029;-59
2024/01/17 08:25:38;;;;;;;10.90;6.60;;;;;;;;;;5068935;28;20017;-52
2024/01/17 08:28:05;;;;;;;10.40;6.07;;;;;;;;;;5056405;28;20068;-54
2024/01/17 08:30:31;;;;;;;10.70;6.30;;;;;;;;;;5074264;28;20039;-53
2024/01/17 08:32:57;;;;;;;10.88;6.40;;;;;;;;;;5073748;28;20020;-54
2024/01/17 08:35:22;;;;;;;10.93;6.40;;;;;;;;;;5072570;28;20390;-53
2024/01/17 08:37:48;;;;;;;11.40;6.65;;;;;;;;;;5070668;28;20032;-56
2024/01/17 08:40:15;;;;;;;11.00;6.40;;;;;;;;;;5071091;28;20373;-54
2024/01/17 08:42:44;;;;;;;11.52;6.70;;;;;;;;;;5070287;28;20108;-56
2024/01/17 08:45:10;;;;;;;11.80;6.90;;;;;;;;;;5070774;28;20034;-57
2024/01/17 08:47:37;;;;;;;11.30;6.60;;;;;;;;;;5070553;28;20052;-49
2024/01/17 08:50:03;;;;;;;14.95;8.77;;;;;;;;;;5070801;28;20526;-53
2024/01/17 08:52:30;;;;;;;11.38;6.63;;;;;;;;;;5052352;28;20382;-51
2024/01/17 08:54:56;;;;;;;11.90;6.90;;;;;;;;;;5070641;28;20415;-55
2024/01/17 08:57:22;;;;;;;11.95;6.97;;;;;;;;;;5052721;28;20039;-55
2024/01/17 08:59:48;;;;;;;11.70;6.80;;;;;;;;;;5070605;28;20020;-56
2024/01/17 09:02:14;;;;;;;11.57;6.80;;;;;;;;;;5067182;28;20021;-55
2024/01/17 09:04:41;;;;;;;12.10;7.00;;;;;;;;;;5070731;28;20021;-55
2024/01/17 09:07:08;;;;;;;12.52;7.25;;;;;;;;;;5070551;28;20024;-56
2024/01/17 09:09:34;;;;;;;12.55;7.30;;;;;;;;;;5052852;28;20133;-56
2024/01/17 09:12:00;;;;;;;11.85;6.90;;;;;;;;;;5070384;28;20059;-57
2024/01/17 09:14:26;;;;;;;11.52;6.72;;;;;;;;;;5070512;28;20045;-59
2024/01/17 09:16:53;;;;;;;12.02;7.00;;;;;;;;;;5070590;28;20042;-58
2024/01/17 09:19:22;;;;;;;11.50;6.70;;;;;;;;;;5070763;28;20016;-58
2024/01/17 09:21:49;;;;;;;11.77;6.88;;;;;;;;;;5069862;28;20016;-58
2024/01/17 09:24:15;;;;;;;12.10;7.00;;;;;;;;;;5070328;28;20120;-58
2024/01/17 09:26:41;;;;;;;11.73;6.88;;;;;;;;;;5070503;28;20055;-57
2024/01/17 09:29:07;;;;;;;11.70;6.80;;;;;;;;;;5070463;28;20471;-57
2024/01/17 09:31:33;;;;;;;11.93;6.93;;;;;;;;;;5051638;28;20024;-57
2024/01/17 09:33:59;;;;;;;12.20;7.10;;;;;;;;;;5070001;28;20028;-56
2024/01/17 09:36:25;;;;;;;11.63;6.80;;;;;;;;;;5069791;28;20028;-54
2024/01/17 09:38:52;;;;;;;11.52;6.70;;;;;;;;;;5051938;28;20020;-56
2024/01/17 09:41:19;;;;;;;13.55;8.07;;;;;;;;;;5069335;28;20085;-59
2024/01/17 09:43:45;;;;;;;11.98;7.18;;;;;;;;;;5070265;28;20020;-56
2024/01/17 09:46:12;;;;;;;11.82;6.90;;;;;;;;;;5069928;28;20033;-56
2024/01/17 09:48:41;;;;;;;11.95;6.93;;;;;;;;;;5072457;28;20100;-57
2024/01/17 09:51:08;;;;;;;12.13;7.03;;;;;;;;;;5072191;28;20119;-53
2024/01/17 09:53:34;;;;;;;11.35;6.63;;;;;;;;;;5072260;28;20028;-51
2024/01/17 09:56:02;;;;;;;11.90;6.90;;;;;;;;;;5071561;28;20028;-54
2024/01/17 09:58:33;;;;;;;11.70;6.80;;;;;;;;;;5072300;28;20476;-51
2024/01/17 10:01:00;;;;;;;11.23;6.57;;;;;;;;;;5071333;28;20028;-52
2024/01/17 10:03:27;;;;;;;11.43;6.70;;;;;;;;;;5071968;28;20048;-58
2024/01/17 10:05:54;;;;;;;12.38;7.15;;;;;;;;;;5070633;28;20039;-56
2024/01/17 10:08:21;;;;;;;11.80;6.90;;;;;;;;;;5071280;28;20024;-52
2024/01/17 10:10:47;;;;;;;12.00;7.10;;;;;;;;;;5070987;28;20336;-55
2024/01/17 10:13:13;;;;;;;11.15;6.53;;;;;;;;;;5070134;28;20033;-53
2024/01/17 10:15:42;;;;;;;11.18;6.50;;;;;;;;;;5069329;28;20029;-54
2024/01/17 10:18:09;;;;;;;11.55;6.72;;;;;;;;;;5069611;28;20518;-57
2024/01/17 10:20:35;;;;;;;11.60;6.80;;;;;;;;;;5069256;28;20145;-59
2024/01/17 10:23:03;;;;;;;10.98;6.45;;;;;;;;;;5069739;28;20228;-55
2024/01/17 10:25:36;;;;;;;11.48;6.70;;;;;;;;;;5069602;28;20081;-57
2024/01/17 10:28:02;;;;;;;12.38;7.35;;;;;;;;;;5068314;28;20025;-57
2024/01/17 10:30:29;;;;;;;10.80;6.30;;;;;;;;;;5069488;28;20032;-57
2024/01/17 10:32:56;;;;;;;11.60;6.80;;;;;;;;;;5068440;28;20020;-55
2024/01/17 10:35:23;;;;;;;11.05;6.50;;;;;;;;;;5069326;28;20100;-57
2024/01/17 10:37:51;;;;;;;11.10;6.57;;;;;;;;;;5063399;28;20052;-56
2024/01/17 10:40:18;;;;;;;11.63;6.80;;;;;;;;;;5068583;28;20294;-53
2024/01/17 10:42:44;;;;;;;12.18;7.30;;;;;;;;;;5060310;28;20020;-58
2024/01/17 10:45:20;;;;;;;11.45;6.70;;;;;;;;;;5049798;28;20025;-56
2024/01/17 10:47:46;;;;;;;11.20;6.60;;;;;;;;;;5068449;28;20571;-55
2024/01/17 10:50:12;;;;;;;11.15;6.55;;;;;;;;;;5068800;28;20090;-57
2024/01/17 10:52:41;;;;;;;11.20;6.53;;;;;;;;;;5067729;28;20032;-54
2024/01/17 10:55:08;;;;;;;10.48;6.15;;;;;;;;;;5068498;28;20670;-48
2024/01/17 10:57:36;;;;;;;11.33;6.60;;;;;;;;;;5069000;28;20029;-54
2024/01/17 11:00:03;;;;;;;12.38;8.65;;;;;;;;;;5060077;28;20768;-56
2024/01/17 11:02:30;;;;;;;10.80;6.30;;;;;;;;;;5067373;28;20021;-55
2024/01/17 11:04:58;;;;;;;11.60;6.78;;;;;;;;;;5068831;28;20043;-53
2024/01/17 11:07:24;;;;;;;11.57;6.75;;;;;;;;;;5068435;28;20024;-55
2024/01/17 11:09:51;;;;;;;11.23;6.60;;;;;;;;;;5068904;28;20096;-57
2024/01/17 11:12:18;;;;;;;14.55;8.30;;;;;;;;;;5068130;28;20079;-54
2024/01/17 11:14:44;;;;;;;11.52;6.70;;;;;;;;;;5068958;28;20132;-55
2024/01/17 11:17:10;;;;;;;11.75;6.85;;;;;;;;;;5068522;28;20560;-54
2024/01/17 11:19:37;;;;;;;11.88;6.90;;;;;;;;;;5068849;28;20029;-54
2024/01/17 11:22:04;;;;;;;12.27;7.15;;;;;;;;;;5067810;28;20044;-54
2024/01/17 11:24:52;;;;;;;11.70;6.80;;;;;;;;;;5068889;28;20059;-53
2024/01/17 11:27:25;;;;;;;11.60;6.80;;;;;;;;;;5068477;28;20459;-53
2024/01/17 11:30:04;;;;;;;11.68;6.82;;;;;;;;;;5051027;28;20035;-55
2024/01/17 11:32:30;;;;;;;11.57;6.78;;;;;;;;;;5067713;28;20058;-52
2024/01/17 11:34:56;;;;;;;11.63;6.78;;;;;;;;;;5068403;28;20033;-56
2024/01/17 11:37:30;;;;;;;11.70;6.80;;;;;;;;;;5050096;28;20438;-56
2024/01/17 11:40:00;;;;;;;12.43;7.30;;;;;;;;;;5068206;28;20059;-55
2024/01/17 11:42:26;;;;;;;12.65;7.32;;;;;;;;;;5067534;28;20021;-56
2024/01/17 11:44:52;;;;;;;12.90;8.95;;;;;;;;;;5068541;28;20025;-55
2024/01/17 11:47:22;;;;;;;10.90;6.40;;;;;;;;;;5068260;28;20036;-55
2024/01/17 11:49:49;;;;;;;11.68;6.78;;;;;;;;;;5068253;28;20021;-56
2024/01/17 11:52:31;;;;;;;12.35;7.40;;;;;;;;;;5067598;28;20600;-55
2024/01/17 11:54:57;;;;;;;11.98;6.95;;;;;;;;;;5039680;28;20056;-54
2024/01/17 11:57:27;;;;;;;12.05;7.00;;;;;;;;;;5047495;28;20029;-56
2024/01/17 12:00:25;;;;;;;10.93;6.40;;;;;;;;;;5047961;28;20025;-55
2024/01/17 12:02:51;;;;;;;11.20;6.60;;;;;;;;;;5022475;28;20400;-51
2024/01/17 12:05:17;;;;;;;11.32;6.60;;;;;;;;;;5067538;28;20021;-55
2024/01/17 12:07:49;;;;;;;11.88;6.93;;;;;;;;;;5067667;28;20034;-54
2024/01/17 12:10:15;;;;;;;11.75;6.90;;;;;;;;;;5066670;28;20020;-56
2024/01/17 12:12:42;;;;;;;12.00;7.00;;;;;;;;;;5062360;28;20017;-55
2024/01/17 12:15:12;;;;;;;12.43;7.22;;;;;;;;;;5071656;28;20111;-49
2024/01/17 12:17:38;;;;;;;11.95;7.00;;;;;;;;;;5071555;28;20449;-56
2024/01/17 12:20:07;;;;;;;12.45;7.28;;;;;;;;;;5071584;28;20478;-54
2024/01/17 12:22:34;;;;;;;12.55;7.32;;;;;;;;;;5070043;28;20430;-59
2024/01/17 12:25:00;;;;;;;12.77;7.55;;;;;;;;;;5066139;28;20422;-53
2024/01/17 12:27:30;;;;;;;12.20;7.10;;;;;;;;;;5071024;28;20060;-53
2024/01/17 12:29:57;;;;;;;12.20;7.10;;;;;;;;;;5071110;28;20812;-55
2024/01/17 12:32:23;;;;;;;12.07;7.25;;;;;;;;;;5052721;28;20410;-55
2024/01/17 12:34:50;;;;;;;12.55;7.30;;;;;;;;;;5071119;28;20029;-55
2024/01/17 12:37:16;;;;;;;12.30;7.13;;;;;;;;;;5070973;28;20114;-56
2024/01/17 12:39:42;;;;;;;12.00;7.00;;;;;;;;;;5070851;28;20379;-55
2024/01/17 12:42:08;;;;;;;12.10;7.03;;;;;;;;;;5070371;28;20023;-51
2024/01/17 12:44:34;;;;;;;13.07;8.55;;;;;;;;;;5070893;28;20020;-52
2024/01/17 12:47:01;;;;;;;12.10;7.10;;;;;;;;;;5070872;28;20051;-56
2024/01/17 12:49:30;;;;;;;12.40;7.18;;;;;;;;;;5070969;28;20112;-56
2024/01/17 12:51:56;;;;;;;11.90;6.95;;;;;;;;;;5062458;28;20025;-56
2024/01/17 12:54:23;;;;;;;11.80;6.90;;;;;;;;;;5071612;28;20099;-55
2024/01/17 12:56:51;;;;;;;11.82;6.90;;;;;;;;;;5053641;28;20029;-54
2024/01/17 12:59:17;;;;;;;12.23;7.13;;;;;;;;;;5070771;28;20023;-54
2024/01/17 13:01:43;;;;;;;12.05;7.00;;;;;;;;;;5069974;28;20043;-55
2024/01/17 13:04:09;;;;;;;11.35;6.63;;;;;;;;;;5070387;28;20039;-52
2024/01/17 13:06:45;;;;;;;11.90;7.00;;;;;;;;;;5069452;28;20095;-55
2024/01/17 13:09:18;;;;;;;11.65;6.82;;;;;;;;;;5070602;28;20467;-56
2024/01/17 13:11:50;;;;;;;12.13;7.10;;;;;;;;;;5052034;28;20021;-54
2024/01/17 13:14:20;;;;;;;11.90;6.97;;;;;;;;;;5070382;28;20050;-58
2024/01/17 13:16:46;;;;;;;11.60;6.80;;;;;;;;;;5070096;28;20048;-54
2024/01/17 13:19:13;;;;;;;11.80;6.90;;;;;;;;;;5052574;28;20055;-55
2024/01/17 13:21:41;;;;;;;11.60;6.80;;;;;;;;;;5068947;28;20031;-53
2024/01/17 13:24:07;;;;;;;12.30;7.20;;;;;;;;;;5065730;28;20084;-57
2024/01/17 13:26:35;;;;;;;12.07;7.00;;;;;;;;;;5069676;28;20444;-57
2024/01/17 13:29:01;;;;;;;;;;;;;;;;;;5070327;28;20016;-57
2024/01/17 13:31:27;;;;;;;11.45;6.70;;;;;;;;;;5069002;28;19915;-56
2024/01/17 13:33:53;;;;;;;11.55;6.78;;;;;;;;;;5069472;28;20032;-53
2024/01/17 13:36:20;;;;;;;11.57;6.78;;;;;;;;;;5069416;28;20494;-53
2024/01/17 13:38:46;;;;;;;11.52;6.78;;;;;;;;;;5069656;28;20024;-55
2024/01/17 13:41:14;;;;;;;11.32;6.57;;;;;;;;;;5068813;28;20391;-56
2024/01/17 13:43:41;;;;;;;11.00;6.47;;;;;;;;;;5064825;28;20013;-52
2024/01/17 13:46:07;;;;;;;12.20;7.63;;;;;;;;;;5069219;28;20090;-52
2024/01/17 13:48:33;;;;;;;11.45;6.70;;;;;;;;;;5069917;28;20103;-55
2024/01/17 13:51:00;;;;;;;14.02;10.93;;;;;;;;;;5069362;28;20036;-53
2024/01/17 13:53:31;;;;;;;11.60;6.80;;;;;;;;;;5069692;28;20027;-54
2024/01/17 13:55:57;;;;;;;11.40;6.70;;;;;;;;;;5069502;28;20091;-51
2024/01/17 13:58:23;;;;;;;11.45;6.72;;;;;;;;;;5070000;28;20012;-57
2024/01/17 14:00:55;;;;;;;11.32;6.60;;;;;;;;;;5069357;28;20613;-55
2024/01/17 14:03:21;;;;;;;11.70;6.85;;;;;;;;;;5050801;28;20048;-57
2024/01/17 14:05:48;;;;;;;11.45;6.68;;;;;;;;;;5069362;28;20021;-59
2024/01/17 14:08:14;;;;;;;11.27;6.60;;;;;;;;;;5069302;28;20031;-55
2024/01/17 14:10:40;;;;;;;11.45;6.70;;;;;;;;;;5068809;28;20028;-53
2024/01/17 14:13:06;;;;;;;11.43;6.70;;;;;;;;;;5068732;28;20032;-55
2024/01/17 14:15:32;;;;;;;10.60;6.20;;;;;;;;;;5069360;28;20543;-56
2024/01/17 14:17:59;;;;;;;11.05;6.53;;;;;;;;;;5069136;28;20148;-58
2024/01/17 14:20:27;;;;;;;10.82;6.40;;;;;;;;;;5068829;28;20020;-58
2024/01/17 14:22:55;;;;;;;11.20;6.60;;;;;;;;;;5068207;28;20044;-57
2024/01/17 14:25:21;;;;;;;11.30;6.60;;;;;;;;;;5068709;28;20028;-56
2024/01/17 14:27:47;;;;;;;10.93;6.40;;;;;;;;;;5068709;28;20069;-56
2024/01/17 14:30:13;;;;;;;10.43;6.15;;;;;;;;;;5069067;28;20051;-54